createdAt,value
2022-12-24T00:01:13.936Z,2.55
2022-12-24T00:03:42.093Z,2.88
2022-12-24T00:06:21.582Z,2.80
2022-12-24T00:08:50.220Z,2.75
2022-12-24T00:11:18.467Z,2.38
2022-12-24T00:13:46.541Z,2.78
2022-12-24T00:16:14.593Z,2.63
2022-12-24T00:18:46.166Z,2.10
2022-12-24T00:21:15.840Z,1.95
2022-12-24T00:23:44.072Z,2.00
2022-12-24T00:26:12.649Z,2.92
2022-12-24T00:28:40.756Z,1.77
2022-12-24T00:31:14.202Z,2.30
2022-12-24T00:33:42.907Z,1.90
2022-12-24T00:36:11.023Z,2.03
2022-12-24T00:38:39.763Z,1.98
2022-12-24T00:41:29.605Z,2.25
2022-12-24T00:44:12.138Z,1.77
2022-12-24T00:46:41.298Z,1.98
2022-12-24T00:49:09.980Z,1.65
2022-12-24T00:51:37.887Z,2.15
2022-12-24T00:54:06.533Z,2.08
2022-12-24T00:56:34.810Z,1.88
2022-12-24T00:59:02.967Z,2.42
2022-12-24T01:01:30.993Z,1.77
2022-12-24T01:04:17.611Z,2.10
2022-12-24T01:06:45.960Z,1.83
2022-12-24T01:09:14.222Z,2.10
2022-12-24T01:11:44.764Z,2.20
2022-12-24T01:14:12.587Z,1.70
2022-12-24T01:16:40.727Z,1.77
2022-12-24T01:19:09.168Z,2.05
2022-12-24T01:21:37.109Z,1.70
2022-12-24T01:24:05.241Z,1.95
2022-12-24T01:26:33.187Z,1.88
2022-12-24T01:29:01.107Z,1.20
2022-12-24T01:31:28.992Z,1.50
2022-12-24T01:33:56.819Z,2.00
2022-12-24T01:36:24.906Z,1.60
2022-12-24T01:38:54.148Z,1.50
2022-12-24T01:41:42.490Z,1.67
2022-12-24T01:44:36.939Z,1.70
2022-12-24T01:47:17.465Z,1.80
2022-12-24T01:49:57.706Z,2.03
2022-12-24T01:52:36.200Z,2.00
2022-12-24T01:55:09.859Z,2.17
2022-12-24T01:57:53.970Z,2.20
2022-12-24T02:00:22.136Z,1.80
2022-12-24T02:02:51.951Z,1.90
2022-12-24T02:05:50.124Z,2.17
2022-12-24T02:08:18.885Z,2.58
2022-12-24T02:10:47.605Z,2.17
2022-12-24T02:13:18.567Z,1.80
2022-12-24T02:15:58.261Z,2.42
2022-12-24T02:18:40.333Z,1.60
2022-12-24T02:21:24.401Z,1.95
2022-12-24T02:24:07.420Z,1.67
2022-12-24T02:26:56.938Z,2.00
2022-12-24T02:29:49.543Z,1.88
2022-12-24T02:32:24.769Z,1.88
2022-12-24T02:35:06.488Z,2.00
2022-12-24T02:37:57.862Z,1.67
2022-12-24T02:40:38.188Z,1.90
2022-12-24T02:43:13.836Z,1.75
2022-12-24T02:45:43.989Z,2.05
2022-12-24T02:48:13.863Z,1.90
2022-12-24T02:50:54.156Z,2.25
2022-12-24T02:53:21.988Z,2.03
2022-12-24T02:56:08.695Z,2.05
2022-12-24T02:58:53.034Z,2.10
2022-12-24T03:01:33.083Z,1.92
2022-12-24T03:04:12.126Z,2.40
2022-12-24T03:06:45.004Z,1.98
2022-12-24T03:09:26.766Z,1.85
2022-12-24T03:14:24.463Z,1.52
2022-12-24T03:16:52.407Z,1.65
2022-12-24T03:19:21.602Z,1.27
2022-12-24T03:21:50.498Z,1.40
2022-12-24T03:24:18.364Z,1.50
2022-12-24T03:26:47.123Z,1.10
2022-12-24T03:29:15.152Z,1.10
2022-12-24T03:31:44.663Z,0.90
2022-12-24T03:34:13.781Z,0.70
2022-12-24T03:36:42.586Z,0.90
2022-12-24T03:39:10.963Z,0.90
2022-12-24T03:41:39.414Z,1.58
2022-12-24T03:44:07.432Z,0.90
2022-12-24T03:46:35.241Z,1.55
2022-12-24T03:49:03.152Z,0.90
2022-12-24T03:51:31.025Z,1.00
2022-12-24T03:53:59.204Z,1.02
2022-12-24T03:56:27.287Z,0.80
2022-12-24T03:58:55.165Z,0.90
2022-12-24T04:01:22.996Z,1.27
2022-12-24T04:03:51.053Z,1.00
2022-12-24T04:06:19.069Z,1.60
2022-12-24T04:08:47.300Z,1.77
2022-12-24T04:11:16.546Z,1.10
2022-12-24T04:13:44.417Z,1.17
2022-12-24T04:16:14.686Z,1.00
2022-12-24T04:18:43.492Z,1.08
2022-12-24T04:21:11.866Z,1.90
2022-12-24T04:23:41.226Z,1.50
2022-12-24T04:26:10.923Z,1.45
2022-12-24T04:28:39.790Z,1.70
2022-12-24T04:31:10.042Z,1.40
2022-12-24T04:33:38.035Z,1.40
2022-12-24T04:36:07.028Z,1.48
2022-12-24T04:38:35.381Z,1.75
2022-12-24T04:41:05.727Z,1.55
2022-12-24T04:43:34.257Z,1.65
2022-12-24T04:46:19.287Z,1.50
2022-12-24T04:48:48.823Z,1.90
2022-12-24T04:51:17.244Z,2.83
2022-12-24T04:53:45.268Z,1.63
2022-12-24T04:56:16.263Z,2.53
2022-12-24T04:58:44.464Z,1.85
2022-12-24T05:01:32.545Z,2.33
2022-12-24T05:04:00.539Z,3.45
2022-12-24T05:06:32.087Z,1.67
2022-12-24T05:11:27.991Z,2.17
2022-12-24T05:13:56.044Z,2.13
2022-12-24T05:16:25.234Z,2.00
2022-12-24T05:18:53.329Z,1.75
2022-12-24T05:21:23.212Z,2.00
2022-12-24T05:24:10.005Z,2.28
2022-12-24T05:26:46.997Z,1.70
2022-12-24T05:29:14.813Z,3.13
2022-12-24T05:31:45.297Z,1.85
2022-12-24T05:34:14.978Z,2.58
2022-12-24T05:36:43.205Z,2.60
2022-12-24T05:39:15.976Z,2.10
2022-12-24T05:41:46.102Z,1.70
2022-12-24T05:44:15.067Z,2.25
2022-12-24T05:46:43.189Z,1.95
2022-12-24T05:49:11.194Z,1.70
2022-12-24T05:51:40.603Z,2.33
2022-12-24T05:54:08.653Z,1.95
2022-12-24T05:56:36.399Z,1.70
2022-12-24T05:59:04.177Z,2.60
2022-12-24T06:01:32.037Z,2.03
2022-12-24T06:04:00.116Z,2.08
2022-12-24T06:06:29.026Z,2.60
2022-12-24T06:08:57.586Z,2.10
2022-12-24T06:11:26.999Z,1.75
2022-12-24T06:13:55.479Z,2.40
2022-12-24T06:16:24.599Z,2.47
2022-12-24T06:18:52.689Z,1.75
2022-12-24T06:21:20.550Z,2.38
2022-12-24T06:23:48.743Z,2.33
2022-12-24T06:26:19.642Z,2.83
2022-12-24T06:28:48.083Z,2.80
2022-12-24T06:31:19.296Z,2.67
2022-12-24T06:33:47.090Z,2.95
2022-12-24T06:36:18.235Z,3.42
2022-12-24T06:38:47.678Z,3.15
2022-12-24T06:41:16.235Z,3.60
2022-12-24T06:43:49.337Z,3.17
2022-12-24T06:46:18.200Z,3.58
2022-12-24T06:48:47.132Z,3.80
2022-12-24T06:51:16.729Z,3.80
2022-12-24T06:53:44.645Z,3.90
2022-12-24T06:56:15.286Z,3.40
2022-12-24T06:58:43.700Z,4.37
2022-12-24T07:01:14.995Z,4.03
2022-12-24T07:03:43.504Z,3.78
2022-12-24T07:06:30.202Z,3.78
2022-12-24T07:08:58.302Z,3.63
2022-12-24T07:11:26.763Z,4.07
2022-12-24T07:13:54.888Z,3.95
2022-12-24T07:16:22.795Z,5.07
2022-12-24T07:18:50.711Z,4.30
2022-12-24T07:21:18.752Z,3.60
2022-12-24T07:23:46.694Z,3.47
2022-12-24T07:26:14.551Z,4.57
2022-12-24T07:28:44.702Z,3.88
2022-12-24T07:31:12.768Z,3.90
2022-12-24T07:33:40.657Z,3.67
2022-12-24T07:36:10.980Z,3.92
2022-12-24T07:38:39.305Z,4.28
2022-12-24T07:41:07.237Z,3.70
2022-12-24T07:43:35.380Z,3.70
2022-12-24T07:46:03.596Z,3.85
2022-12-24T07:48:32.216Z,3.30
2022-12-24T07:51:00.471Z,4.13
2022-12-24T07:53:29.157Z,4.38
2022-12-24T07:55:57.365Z,4.57
2022-12-24T07:58:25.731Z,3.28
2022-12-24T08:00:58.505Z,2.80
2022-12-24T08:03:27.119Z,3.92
2022-12-24T08:05:55.154Z,4.07
2022-12-24T08:08:22.879Z,3.70
2022-12-24T08:10:50.798Z,3.92
2022-12-24T08:13:19.029Z,3.55
2022-12-24T08:15:46.908Z,3.30
2022-12-24T08:18:14.881Z,3.28
2022-12-24T08:20:43.135Z,4.63
2022-12-24T08:23:11.029Z,3.70
2022-12-24T08:25:42.132Z,4.40
2022-12-24T08:28:10.344Z,3.75
2022-12-24T08:30:38.005Z,3.33
2022-12-24T08:33:05.875Z,3.25
2022-12-24T08:35:33.862Z,2.88
2022-12-24T08:38:01.807Z,3.80
2022-12-24T08:40:29.932Z,3.17
2022-12-24T08:42:57.998Z,3.65
2022-12-24T08:45:25.946Z,3.25
2022-12-24T08:47:53.732Z,3.17
2022-12-24T08:50:21.372Z,2.95
2022-12-24T08:52:49.103Z,3.33
2022-12-24T08:55:17.226Z,3.70
2022-12-24T08:57:44.998Z,2.97
2022-12-24T09:00:14.029Z,3.22
2022-12-24T09:02:42.083Z,3.90
2022-12-24T09:05:10.645Z,3.83
2022-12-24T09:07:41.276Z,4.22
2022-12-24T09:10:10.215Z,2.97
2022-12-24T09:12:38.779Z,3.35
2022-12-24T09:15:08.359Z,2.88
2022-12-24T09:17:38.930Z,3.55
2022-12-24T09:20:07.778Z,3.00
2022-12-24T09:22:37.551Z,2.88
2022-12-24T09:25:10.751Z,3.30
2022-12-24T09:27:39.102Z,2.50
2022-12-24T09:30:08.822Z,3.13
2022-12-24T09:32:36.761Z,3.35
2022-12-24T09:35:05.155Z,3.95
2022-12-24T09:37:32.995Z,3.53
2022-12-24T09:40:01.058Z,4.13
2022-12-24T09:42:52.171Z,4.50
2022-12-24T09:45:32.160Z,3.50
2022-12-24T09:48:10.206Z,3.63
2022-12-24T09:50:55.433Z,3.03
2022-12-24T09:53:40.281Z,3.75
2022-12-24T09:56:24.277Z,3.70
2022-12-24T09:59:20.338Z,3.92
2022-12-24T10:01:49.488Z,4.45
2022-12-24T10:04:19.853Z,2.97
2022-12-24T10:07:26.180Z,3.10
2022-12-24T10:10:28.349Z,2.78
2022-12-24T10:13:02.725Z,4.40
2022-12-24T10:15:46.744Z,3.72
2022-12-24T10:18:29.870Z,3.20
2022-12-24T10:21:07.872Z,3.35
2022-12-24T10:23:47.277Z,3.30
2022-12-24T10:26:28.246Z,3.17
2022-12-24T10:29:12.745Z,3.53
2022-12-24T10:32:09.684Z,3.80
2022-12-24T10:34:53.101Z,4.40
2022-12-24T10:37:25.950Z,2.95
2022-12-24T10:39:54.194Z,3.22
2022-12-24T10:42:24.187Z,3.67
2022-12-24T10:44:57.088Z,3.13
2022-12-24T10:47:25.712Z,2.90
2022-12-24T10:50:06.199Z,2.92
2022-12-24T10:52:38.108Z,3.75
2022-12-24T10:55:20.034Z,2.90
2022-12-24T10:58:01.865Z,3.00
2022-12-24T11:00:35.524Z,3.10
2022-12-24T11:03:37.152Z,2.70
2022-12-24T11:06:06.797Z,2.88
2022-12-24T11:08:36.531Z,2.97
2022-12-24T11:11:11.785Z,3.22
2022-12-24T11:13:44.381Z,3.05
2022-12-24T11:16:31.425Z,3.10
2022-12-24T11:19:02.225Z,2.75
2022-12-24T11:21:35.951Z,2.45
2022-12-24T11:24:08.907Z,3.15
2022-12-24T11:26:36.899Z,2.95
2022-12-24T11:29:15.396Z,2.80
2022-12-24T11:31:44.986Z,2.45
2022-12-24T11:34:32.323Z,3.38
2022-12-24T11:37:14.627Z,2.17
2022-12-24T11:39:58.709Z,2.40
2022-12-24T11:42:38.333Z,2.35
2022-12-24T11:45:23.157Z,2.92
2022-12-24T11:47:52.388Z,1.88
2022-12-24T11:50:28.055Z,2.38
2022-12-24T11:53:07.719Z,2.63
2022-12-24T11:55:35.740Z,2.17
2022-12-24T11:58:46.800Z,1.98
2022-12-24T12:01:52.629Z,2.25
2022-12-24T12:04:26.749Z,2.28
2022-12-24T12:09:27.813Z,1.70
2022-12-24T12:12:13.512Z,1.88
2022-12-24T12:14:50.566Z,1.48
2022-12-24T12:17:26.975Z,1.50
2022-12-24T12:20:04.250Z,1.20
2022-12-24T12:23:07.311Z,1.23
2022-12-24T12:25:56.617Z,1.02
2022-12-24T12:28:32.985Z,1.23
2022-12-24T12:31:15.749Z,1.20
2022-12-24T12:34:17.392Z,0.90
2022-12-24T12:37:01.425Z,1.40
2022-12-24T12:39:31.782Z,0.80
2022-12-24T12:42:27.072Z,1.17
2022-12-24T12:45:25.553Z,0.88
2022-12-24T12:48:08.465Z,0.80
2022-12-24T12:50:59.151Z,0.93
2022-12-24T12:53:45.264Z,1.00
2022-12-24T12:56:25.394Z,0.80
2022-12-24T12:58:56.177Z,0.65
2022-12-24T13:01:47.418Z,0.82
2022-12-24T13:04:59.866Z,0.70
2022-12-24T13:07:47.098Z,0.80
2022-12-24T13:10:34.211Z,1.08
2022-12-24T13:13:26.971Z,0.93
2022-12-24T13:16:17.334Z,0.68
2022-12-24T13:18:45.101Z,1.02
2022-12-24T13:21:31.657Z,0.80
2022-12-24T13:24:17.966Z,0.80
2022-12-24T13:27:20.195Z,0.82
2022-12-24T13:30:05.220Z,0.80
2022-12-24T13:32:52.233Z,0.80
2022-12-24T13:35:20.036Z,0.70
2022-12-24T13:37:50.103Z,1.00
2022-12-24T13:40:24.859Z,1.00
2022-12-24T13:43:07.958Z,1.20
2022-12-24T13:45:44.716Z,1.20
2022-12-24T13:48:12.488Z,0.82
2022-12-24T13:50:52.657Z,1.10
2022-12-24T13:53:33.541Z,0.82
2022-12-24T13:56:30.824Z,0.83
2022-12-24T13:59:25.023Z,0.63
2022-12-24T14:01:53.133Z,0.95
2022-12-24T14:04:28.486Z,1.00
2022-12-24T14:06:59.467Z,1.00
2022-12-24T14:09:28.317Z,1.15
2022-12-24T14:12:07.426Z,0.98
2022-12-24T14:14:41.054Z,1.05
2022-12-24T14:17:28.378Z,0.90
2022-12-24T14:20:01.299Z,1.70
2022-12-24T14:22:29.885Z,0.80
2022-12-24T14:25:29.479Z,1.10
2022-12-24T14:28:05.309Z,1.15
2022-12-24T14:30:33.981Z,1.00
2022-12-24T14:33:02.090Z,1.60
2022-12-24T14:35:36.209Z,1.48
2022-12-24T14:38:18.966Z,1.67
2022-12-24T14:41:13.190Z,1.60
2022-12-24T14:43:54.452Z,1.85
2022-12-24T14:46:59.035Z,1.10
2022-12-24T14:49:53.349Z,1.38
2022-12-24T14:53:11.887Z,1.83
2022-12-24T14:55:47.101Z,1.40
2022-12-24T14:58:40.688Z,1.40
2022-12-24T15:01:31.542Z,1.83
2022-12-24T15:04:16.141Z,2.63
2022-12-24T15:06:53.325Z,2.45
2022-12-24T15:09:32.419Z,3.58
2022-12-24T15:12:03.624Z,3.00
2022-12-24T15:16:32.791Z,3.15
2022-12-24T15:19:22.399Z,3.83
2022-12-24T15:21:50.792Z,4.22
2022-12-24T15:24:33.127Z,4.72
2022-12-24T15:27:03.200Z,3.80
2022-12-24T15:29:33.199Z,3.80
2022-12-24T15:32:05.281Z,4.10
2022-12-24T15:34:41.794Z,3.45
2022-12-24T15:37:26.815Z,5.30
2022-12-24T15:40:13.352Z,2.63
2022-12-24T15:42:44.479Z,1.83
2022-12-24T15:45:26.658Z,1.70
2022-12-24T15:48:09.099Z,2.10
2022-12-24T15:51:00.588Z,2.10
2022-12-24T15:53:31.395Z,1.77
2022-12-24T15:56:30.787Z,1.70
2022-12-24T15:59:18.032Z,2.10
2022-12-24T16:01:47.277Z,1.50
2022-12-24T16:04:24.299Z,1.35
2022-12-24T16:07:03.201Z,1.33
2022-12-24T16:09:41.820Z,1.67
2022-12-24T16:12:22.183Z,1.40
2022-12-24T16:14:53.108Z,1.23
2022-12-24T16:17:23.914Z,1.15
2022-12-24T16:19:53.951Z,1.20
2022-12-24T16:22:32.564Z,1.33
2022-12-24T16:25:21.160Z,1.38
2022-12-24T16:27:50.050Z,1.50
2022-12-24T16:30:18.657Z,1.10
2022-12-24T16:32:48.281Z,1.38
2022-12-24T16:35:27.431Z,1.27
2022-12-24T16:37:55.967Z,1.20
2022-12-24T16:40:27.693Z,1.65
2022-12-24T16:43:16.172Z,1.77
2022-12-24T16:45:45.403Z,2.15
2022-12-24T16:48:22.587Z,2.33
2022-12-24T16:50:51.686Z,2.78
2022-12-24T16:53:22.676Z,3.75
2022-12-24T16:55:51.756Z,3.83
2022-12-24T16:58:20.937Z,3.90
2022-12-24T17:00:49.137Z,3.58
2022-12-24T17:03:17.348Z,4.00
2022-12-24T17:05:45.639Z,4.28
2022-12-24T17:08:14.198Z,4.00
2022-12-24T17:10:44.727Z,3.70
2022-12-24T17:13:12.566Z,3.67
2022-12-24T17:15:42.693Z,3.65
2022-12-24T17:18:10.503Z,4.43
2022-12-24T17:20:38.235Z,3.95
2022-12-24T17:23:05.942Z,3.88
2022-12-24T17:25:35.492Z,4.30
2022-12-24T17:28:03.276Z,4.25
2022-12-24T17:30:31.432Z,4.53
2022-12-24T17:32:59.304Z,4.78
2022-12-24T17:35:27.216Z,4.25
2022-12-24T17:37:55.211Z,4.50
2022-12-24T17:40:22.966Z,3.97
2022-12-24T17:42:50.746Z,4.70
2022-12-24T17:45:18.990Z,3.63
2022-12-24T17:47:46.867Z,3.50
2022-12-24T17:50:17.410Z,4.05
2022-12-24T17:52:45.241Z,3.50
2022-12-24T17:55:13.001Z,3.47
2022-12-24T17:57:42.254Z,3.30
2022-12-24T18:00:10.719Z,3.75
2022-12-24T18:02:39.733Z,4.47
2022-12-24T18:05:08.210Z,4.75
2022-12-24T18:07:36.571Z,3.85
2022-12-24T18:10:04.971Z,3.65
2022-12-24T18:12:32.868Z,4.30
2022-12-24T18:15:00.651Z,3.25
2022-12-24T18:17:28.587Z,3.67
2022-12-24T18:19:56.366Z,3.97
2022-12-24T18:22:24.167Z,3.50
2022-12-24T18:24:51.967Z,3.78
2022-12-24T18:27:19.684Z,3.85
2022-12-24T18:29:47.619Z,4.10
2022-12-24T18:32:17.213Z,4.55
2022-12-24T18:34:45.439Z,4.50
2022-12-24T18:37:13.851Z,4.45
2022-12-24T18:39:41.797Z,4.70
2022-12-24T18:42:14.633Z,3.58
2022-12-24T18:44:42.887Z,3.85
2022-12-24T18:47:10.866Z,3.78
2022-12-24T18:49:39.487Z,3.85
2022-12-24T18:52:09.605Z,4.30
2022-12-24T18:54:41.317Z,3.78
2022-12-24T18:59:39.232Z,3.45
2022-12-24T19:02:07.335Z,3.35
2022-12-24T19:04:39.525Z,3.40
2022-12-24T19:07:07.564Z,3.75
2022-12-24T19:09:35.447Z,4.13
2022-12-24T19:12:04.522Z,3.83
2022-12-24T19:14:32.447Z,3.50
2022-12-24T19:17:00.399Z,3.83
2022-12-24T19:19:28.387Z,4.57
2022-12-24T19:21:56.177Z,3.50
2022-12-24T19:24:24.053Z,4.05
2022-12-24T19:26:51.808Z,2.85
2022-12-24T19:29:19.804Z,3.67
2022-12-24T19:31:47.783Z,4.45
2022-12-24T19:34:19.519Z,3.75
2022-12-24T19:39:16.519Z,3.72
2022-12-24T19:41:44.263Z,3.70
2022-12-24T19:44:12.300Z,3.38
2022-12-24T19:46:40.278Z,3.33
2022-12-24T19:49:11.926Z,3.53
2022-12-24T19:54:14.895Z,3.45
2022-12-24T19:56:44.881Z,4.07
2022-12-24T19:59:12.741Z,3.38
2022-12-24T20:01:41.047Z,3.47
2022-12-24T20:04:10.746Z,3.78
2022-12-24T20:06:39.574Z,4.70
2022-12-24T20:09:08.875Z,4.30
2022-12-24T20:11:36.669Z,3.80
2022-12-24T20:14:05.763Z,3.55
2022-12-24T20:16:34.503Z,3.70
2022-12-24T20:19:05.604Z,3.50
2022-12-24T20:21:33.714Z,3.72
2022-12-24T20:24:01.956Z,3.65
2022-12-24T20:26:30.376Z,3.20
2022-12-24T20:28:58.961Z,3.83
2022-12-24T20:31:29.522Z,3.67
2022-12-24T20:33:58.337Z,4.00
2022-12-24T20:36:27.171Z,3.85
2022-12-24T20:38:55.361Z,3.60
2022-12-24T20:41:27.471Z,3.33
2022-12-24T20:43:57.444Z,3.63
2022-12-24T20:46:25.758Z,4.07
2022-12-24T20:48:55.612Z,3.47
2022-12-24T20:51:25.973Z,3.83
2022-12-24T20:53:55.615Z,3.90
2022-12-24T20:56:24.604Z,3.35
2022-12-24T20:58:53.038Z,3.90
2022-12-24T21:01:24.986Z,3.25
2022-12-24T21:03:54.057Z,3.38
2022-12-24T21:06:22.561Z,3.50
2022-12-24T21:08:51.758Z,3.25
2022-12-24T21:11:38.622Z,3.28
2022-12-24T21:14:07.296Z,3.13
2022-12-24T21:16:36.786Z,3.17
2022-12-24T21:19:06.070Z,3.47
2022-12-24T21:21:34.906Z,3.88
2022-12-24T21:24:03.929Z,3.60
2022-12-24T21:26:32.717Z,3.97
2022-12-24T21:29:01.620Z,4.75
2022-12-24T21:31:29.658Z,4.07
2022-12-24T21:33:58.026Z,4.00
2022-12-24T21:36:29.793Z,3.65
2022-12-24T21:41:26.174Z,4.32
2022-12-24T21:43:54.773Z,4.18
2022-12-24T21:46:25.508Z,3.83
2022-12-24T21:49:13.071Z,3.72
2022-12-24T21:51:43.544Z,3.10
2022-12-24T21:54:23.663Z,3.50
2022-12-24T21:57:11.056Z,3.70
2022-12-24T21:59:39.276Z,3.95
2022-12-24T22:02:09.610Z,3.58
2022-12-24T22:04:37.741Z,3.67
2022-12-24T22:07:24.469Z,3.40
2022-12-24T22:10:10.512Z,3.40
2022-12-24T22:12:38.430Z,3.15
2022-12-24T22:15:08.036Z,3.72
2022-12-24T22:17:36.007Z,4.38
2022-12-24T22:20:04.161Z,4.55
2022-12-24T22:22:32.051Z,4.80
2022-12-24T22:24:59.768Z,5.22
2022-12-24T22:27:27.731Z,4.38
2022-12-24T22:29:55.661Z,4.18
2022-12-24T22:32:23.736Z,4.18
2022-12-24T22:34:53.357Z,4.00
2022-12-24T22:37:24.204Z,3.38
2022-12-24T22:39:51.997Z,3.93
2022-12-24T22:42:19.970Z,4.78
2022-12-24T22:44:51.288Z,4.43
2022-12-24T22:47:19.075Z,3.78
2022-12-24T22:49:49.066Z,4.55
2022-12-24T22:52:17.136Z,6.07
2022-12-24T22:54:45.473Z,5.40
2022-12-24T22:57:13.782Z,3.95
2022-12-24T22:59:41.772Z,4.40
2022-12-24T23:02:10.066Z,4.88
2022-12-24T23:04:39.994Z,3.80
2022-12-24T23:07:09.317Z,3.53
2022-12-24T23:09:38.245Z,3.70
2022-12-24T23:12:06.729Z,4.32
2022-12-24T23:14:52.999Z,4.00
2022-12-24T23:17:20.841Z,4.30
2022-12-24T23:19:48.747Z,6.50
2022-12-24T23:22:16.462Z,5.97
2022-12-24T23:24:44.643Z,5.43
2022-12-24T23:27:12.576Z,4.75
2022-12-24T23:29:40.502Z,4.72
2022-12-24T23:32:08.610Z,3.20
2022-12-24T23:34:36.425Z,4.20
2022-12-24T23:37:04.421Z,4.20
2022-12-24T23:39:32.361Z,5.18
2022-12-24T23:42:00.311Z,4.70
2022-12-24T23:44:32.156Z,4.75
2022-12-24T23:47:00.959Z,4.32
2022-12-24T23:49:28.926Z,4.93
2022-12-24T23:51:57.168Z,5.03
2022-12-24T23:54:24.908Z,5.00
2022-12-24T23:56:52.669Z,4.38
2022-12-24T23:59:20.462Z,5.07
